sensor_id;sensor_type;location;lat;lon;timestamp;P1;durP1;ratioP1;P2;durP2;ratioP2
21741;SDS011;11033;47.490;11.116;2023-04-08T00:02:15;9.27;;;6.10;;
21741;SDS011;11033;47.490;11.116;2023-04-08T00:04:41;7.47;;;5.53;;
21741;SDS011;11033;47.490;11.116;2023-04-08T00:07:06;7.15;;;6.22;;
21741;SDS011;11033;47.490;11.116;2023-04-08T00:09:31;9.63;;;6.45;;
21741;SDS011;11033;47.490;11.116;2023-04-08T00:11:57;7.82;;;6.53;;
21741;SDS011;11033;47.490;11.116;2023-04-08T00:14:22;9.30;;;6.13;;
21741;SDS011;11033;47.490;11.116;2023-04-08T00:16:47;7.95;;;5.93;;
21741;SDS011;11033;47.490;11.116;2023-04-08T00:19:13;7.00;;;6.03;;
21741;SDS011;11033;47.490;11.116;2023-04-08T00:21:38;11.05;;;7.10;;
21741;SDS011;11033;47.490;11.116;2023-04-08T00:24:03;7.82;;;6.20;;
21741;SDS011;11033;47.490;11.116;2023-04-08T00:26:29;6.80;;;5.63;;
21741;SDS011;11033;47.490;11.116;2023-04-08T00:28:55;8.38;;;6.03;;
21741;SDS011;11033;47.490;11.116;2023-04-08T00:31:20;9.80;;;6.60;;
21741;SDS011;11033;47.490;11.116;2023-04-08T00:33:46;8.18;;;6.07;;
21741;SDS011;11033;47.490;11.116;2023-04-08T00:36:11;9.93;;;5.30;;
21741;SDS011;11033;47.490;11.116;2023-04-08T00:38:36;8.03;;;5.97;;
21741;SDS011;11033;47.490;11.116;2023-04-08T00:41:01;7.10;;;5.53;;
21741;SDS011;11033;47.490;11.116;2023-04-08T00:43:27;6.57;;;5.57;;
21741;SDS011;11033;47.490;11.116;2023-04-08T00:45:52;8.37;;;6.20;;
21741;SDS011;11033;47.490;11.116;2023-04-08T00:48:17;6.90;;;5.50;;
21741;SDS011;11033;47.490;11.116;2023-04-08T00:50:43;7.65;;;5.78;;
21741;SDS011;11033;47.490;11.116;2023-04-08T00:53:08;8.88;;;6.60;;
21741;SDS011;11033;47.490;11.116;2023-04-08T00:55:34;9.23;;;7.05;;
21741;SDS011;11033;47.490;11.116;2023-04-08T00:58:00;8.75;;;6.55;;
21741;SDS011;11033;47.490;11.116;2023-04-08T01:00:25;7.07;;;5.00;;
21741;SDS011;11033;47.490;11.116;2023-04-08T01:03:09;7.47;;;5.47;;
21741;SDS011;11033;47.490;11.116;2023-04-08T01:08:08;10.18;;;6.95;;
21741;SDS011;11033;47.490;11.116;2023-04-08T01:10:36;6.65;;;5.30;;
21741;SDS011;11033;47.490;11.116;2023-04-08T01:13:11;124.13;;;19.00;;
21741;SDS011;11033;47.490;11.116;2023-04-08T01:15:38;10.32;;;6.45;;
21741;SDS011;11033;47.490;11.116;2023-04-08T01:18:09;11.50;;;7.13;;
21741;SDS011;11033;47.490;11.116;2023-04-08T01:20:37;9.93;;;5.95;;
21741;SDS011;11033;47.490;11.116;2023-04-08T01:23:09;9.45;;;7.10;;
21741;SDS011;11033;47.490;11.116;2023-04-08T01:25:51;7.82;;;5.63;;
21741;SDS011;11033;47.490;11.116;2023-04-08T01:28:21;13.15;;;7.20;;
21741;SDS011;11033;47.490;11.116;2023-04-08T01:30:49;8.25;;;5.50;;
21741;SDS011;11033;47.490;11.116;2023-04-08T01:33:16;8.65;;;6.10;;
21741;SDS011;11033;47.490;11.116;2023-04-08T01:35:43;9.10;;;6.03;;
21741;SDS011;11033;47.490;11.116;2023-04-08T01:38:10;10.30;;;7.03;;
21741;SDS011;11033;47.490;11.116;2023-04-08T01:40:39;8.98;;;5.50;;
21741;SDS011;11033;47.490;11.116;2023-04-08T01:43:07;9.30;;;6.75;;
21741;SDS011;11033;47.490;11.116;2023-04-08T01:45:33;8.75;;;6.35;;
21741;SDS011;11033;47.490;11.116;2023-04-08T01:47:59;7.07;;;5.70;;
21741;SDS011;11033;47.490;11.116;2023-04-08T01:50:25;10.65;;;6.93;;
21741;SDS011;11033;47.490;11.116;2023-04-08T01:52:51;8.48;;;6.05;;
21741;SDS011;11033;47.490;11.116;2023-04-08T01:55:18;7.95;;;6.30;;
21741;SDS011;11033;47.490;11.116;2023-04-08T01:57:47;9.57;;;6.07;;
21741;SDS011;11033;47.490;11.116;2023-04-08T02:00:14;10.25;;;7.18;;
21741;SDS011;11033;47.490;11.116;2023-04-08T02:02:43;10.18;;;7.20;;
21741;SDS011;11033;47.490;11.116;2023-04-08T02:05:11;9.77;;;7.10;;
21741;SDS011;11033;47.490;11.116;2023-04-08T02:07:36;7.88;;;6.10;;
21741;SDS011;11033;47.490;11.116;2023-04-08T02:10:02;9.47;;;6.53;;
21741;SDS011;11033;47.490;11.116;2023-04-08T02:12:28;9.23;;;6.60;;
21741;SDS011;11033;47.490;11.116;2023-04-08T02:14:53;7.15;;;5.50;;
21741;SDS011;11033;47.490;11.116;2023-04-08T02:22:38;8.05;;;6.25;;
21741;SDS011;11033;47.490;11.116;2023-04-08T02:25:19;8.00;;;5.78;;
21741;SDS011;11033;47.490;11.116;2023-04-08T02:27:49;8.60;;;6.40;;
21741;SDS011;11033;47.490;11.116;2023-04-08T02:30:16;7.97;;;6.53;;
21741;SDS011;11033;47.490;11.116;2023-04-08T02:32:43;8.95;;;5.95;;
21741;SDS011;11033;47.490;11.116;2023-04-08T02:35:09;11.52;;;8.38;;
21741;SDS011;11033;47.490;11.116;2023-04-08T02:37:36;9.52;;;7.45;;
21741;SDS011;11033;47.490;11.116;2023-04-08T02:40:02;10.75;;;6.47;;
21741;SDS011;11033;47.490;11.116;2023-04-08T02:42:27;7.22;;;5.72;;
21741;SDS011;11033;47.490;11.116;2023-04-08T02:44:52;9.65;;;6.68;;
21741;SDS011;11033;47.490;11.116;2023-04-08T02:47:18;7.55;;;5.68;;
21741;SDS011;11033;47.490;11.116;2023-04-08T02:49:43;8.02;;;6.13;;
21741;SDS011;11033;47.490;11.116;2023-04-08T02:52:08;7.72;;;5.90;;
21741;SDS011;11033;47.490;11.116;2023-04-08T02:54:34;9.55;;;6.50;;
21741;SDS011;11033;47.490;11.116;2023-04-08T02:56:59;7.88;;;5.65;;
21741;SDS011;11033;47.490;11.116;2023-04-08T02:59:25;8.77;;;6.40;;
21741;SDS011;11033;47.490;11.116;2023-04-08T03:01:50;10.00;;;6.67;;
21741;SDS011;11033;47.490;11.116;2023-04-08T03:04:15;10.67;;;6.27;;
21741;SDS011;11033;47.490;11.116;2023-04-08T03:06:41;9.90;;;6.60;;
21741;SDS011;11033;47.490;11.116;2023-04-08T03:09:06;11.60;;;7.20;;
21741;SDS011;11033;47.490;11.116;2023-04-08T03:11:31;9.30;;;7.07;;
21741;SDS011;11033;47.490;11.116;2023-04-08T03:13:56;8.82;;;6.20;;
21741;SDS011;11033;47.490;11.116;2023-04-08T03:16:22;12.15;;;7.25;;
21741;SDS011;11033;47.490;11.116;2023-04-08T03:18:50;10.07;;;7.38;;
21741;SDS011;11033;47.490;11.116;2023-04-08T03:21:16;9.27;;;6.05;;
21741;SDS011;11033;47.490;11.116;2023-04-08T03:23:41;9.20;;;5.60;;
21741;SDS011;11033;47.490;11.116;2023-04-08T03:26:06;8.68;;;5.82;;
21741;SDS011;11033;47.490;11.116;2023-04-08T03:28:32;8.15;;;6.20;;
21741;SDS011;11033;47.490;11.116;2023-04-08T03:30:57;9.40;;;6.77;;
21741;SDS011;11033;47.490;11.116;2023-04-08T03:33:22;7.67;;;5.90;;
21741;SDS011;11033;47.490;11.116;2023-04-08T03:35:48;8.35;;;5.70;;
21741;SDS011;11033;47.490;11.116;2023-04-08T03:38:13;7.10;;;5.50;;
21741;SDS011;11033;47.490;11.116;2023-04-08T03:40:38;9.10;;;5.20;;
21741;SDS011;11033;47.490;11.116;2023-04-08T03:43:03;10.43;;;6.47;;
21741;SDS011;11033;47.490;11.116;2023-04-08T03:45:30;6.85;;;5.68;;
21741;SDS011;11033;47.490;11.116;2023-04-08T03:47:55;8.52;;;5.95;;
21741;SDS011;11033;47.490;11.116;2023-04-08T03:50:21;8.57;;;6.23;;
21741;SDS011;11033;47.490;11.116;2023-04-08T03:52:46;7.55;;;5.20;;
21741;SDS011;11033;47.490;11.116;2023-04-08T03:55:11;7.63;;;5.13;;
21741;SDS011;11033;47.490;11.116;2023-04-08T03:57:37;10.93;;;7.63;;
21741;SDS011;11033;47.490;11.116;2023-04-08T04:00:02;11.43;;;7.17;;
21741;SDS011;11033;47.490;11.116;2023-04-08T04:02:27;10.32;;;7.30;;
21741;SDS011;11033;47.490;11.116;2023-04-08T04:04:53;8.80;;;5.82;;
21741;SDS011;11033;47.490;11.116;2023-04-08T04:07:18;10.93;;;7.00;;
21741;SDS011;11033;47.490;11.116;2023-04-08T04:09:44;8.83;;;6.20;;
21741;SDS011;11033;47.490;11.116;2023-04-08T04:12:09;8.90;;;6.68;;
21741;SDS011;11033;47.490;11.116;2023-04-08T04:14:34;9.75;;;6.90;;
21741;SDS011;11033;47.490;11.116;2023-04-08T04:17:00;8.00;;;5.97;;
21741;SDS011;11033;47.490;11.116;2023-04-08T04:19:28;7.67;;;5.70;;
21741;SDS011;11033;47.490;11.116;2023-04-08T04:21:54;10.10;;;6.93;;
21741;SDS011;11033;47.490;11.116;2023-04-08T04:24:19;9.80;;;6.70;;
21741;SDS011;11033;47.490;11.116;2023-04-08T04:26:44;10.35;;;7.07;;
21741;SDS011;11033;47.490;11.116;2023-04-08T04:29:10;10.40;;;7.23;;
21741;SDS011;11033;47.490;11.116;2023-04-08T04:31:35;19.17;;;7.23;;
21741;SDS011;11033;47.490;11.116;2023-04-08T04:34:00;8.53;;;6.83;;
21741;SDS011;11033;47.490;11.116;2023-04-08T04:36:25;10.57;;;7.13;;
21741;SDS011;11033;47.490;11.116;2023-04-08T04:38:51;7.85;;;6.50;;
21741;SDS011;11033;47.490;11.116;2023-04-08T04:41:16;7.90;;;6.43;;
21741;SDS011;11033;47.490;11.116;2023-04-08T04:43:42;9.90;;;7.32;;
21741;SDS011;11033;47.490;11.116;2023-04-08T04:46:07;14.13;;;9.40;;
21741;SDS011;11033;47.490;11.116;2023-04-08T04:48:33;12.13;;;8.02;;
21741;SDS011;11033;47.490;11.116;2023-04-08T04:50:59;10.40;;;6.55;;
21741;SDS011;11033;47.490;11.116;2023-04-08T04:53:28;8.35;;;6.50;;
21741;SDS011;11033;47.490;11.116;2023-04-08T04:55:54;8.48;;;6.32;;
21741;SDS011;11033;47.490;11.116;2023-04-08T04:58:19;9.95;;;7.97;;
21741;SDS011;11033;47.490;11.116;2023-04-08T05:00:45;9.43;;;7.18;;
21741;SDS011;11033;47.490;11.116;2023-04-08T05:03:10;9.38;;;6.25;;
21741;SDS011;11033;47.490;11.116;2023-04-08T05:05:36;9.65;;;7.32;;
21741;SDS011;11033;47.490;11.116;2023-04-08T05:08:01;9.97;;;7.63;;
21741;SDS011;11033;47.490;11.116;2023-04-08T05:10:27;10.48;;;7.30;;
21741;SDS011;11033;47.490;11.116;2023-04-08T05:12:52;10.80;;;6.97;;
21741;SDS011;11033;47.490;11.116;2023-04-08T05:15:17;14.97;;;8.83;;
21741;SDS011;11033;47.490;11.116;2023-04-08T05:17:42;9.63;;;6.68;;
21741;SDS011;11033;47.490;11.116;2023-04-08T05:20:08;14.30;;;8.30;;
21741;SDS011;11033;47.490;11.116;2023-04-08T05:22:33;9.35;;;7.28;;
21741;SDS011;11033;47.490;11.116;2023-04-08T05:24:59;9.50;;;7.15;;
21741;SDS011;11033;47.490;11.116;2023-04-08T05:27:24;9.20;;;6.60;;
21741;SDS011;11033;47.490;11.116;2023-04-08T05:29:50;12.55;;;7.63;;
21741;SDS011;11033;47.490;11.116;2023-04-08T05:32:15;12.38;;;8.30;;
21741;SDS011;11033;47.490;11.116;2023-04-08T05:34:41;11.45;;;7.18;;
21741;SDS011;11033;47.490;11.116;2023-04-08T05:37:06;9.05;;;7.10;;
21741;SDS011;11033;47.490;11.116;2023-04-08T05:39:32;10.87;;;7.83;;
21741;SDS011;11033;47.490;11.116;2023-04-08T05:41:57;8.00;;;6.43;;
21741;SDS011;11033;47.490;11.116;2023-04-08T05:44:22;11.27;;;6.28;;
21741;SDS011;11033;47.490;11.116;2023-04-08T05:46:48;8.97;;;6.77;;
21741;SDS011;11033;47.490;11.116;2023-04-08T05:49:13;8.95;;;5.93;;
21741;SDS011;11033;47.490;11.116;2023-04-08T05:51:39;10.65;;;7.45;;
21741;SDS011;11033;47.490;11.116;2023-04-08T05:54:05;9.52;;;7.07;;
21741;SDS011;11033;47.490;11.116;2023-04-08T05:56:30;11.32;;;8.27;;
21741;SDS011;11033;47.490;11.116;2023-04-08T05:58:56;12.15;;;7.68;;
21741;SDS011;11033;47.490;11.116;2023-04-08T06:01:21;11.35;;;7.82;;
21741;SDS011;11033;47.490;11.116;2023-04-08T06:03:47;10.07;;;7.28;;
21741;SDS011;11033;47.490;11.116;2023-04-08T06:06:12;9.20;;;6.63;;
21741;SDS011;11033;47.490;11.116;2023-04-08T06:08:37;8.43;;;7.00;;
21741;SDS011;11033;47.490;11.116;2023-04-08T06:11:03;9.15;;;6.55;;
21741;SDS011;11033;47.490;11.116;2023-04-08T06:13:29;9.75;;;6.88;;
21741;SDS011;11033;47.490;11.116;2023-04-08T06:15:54;10.15;;;6.63;;
21741;SDS011;11033;47.490;11.116;2023-04-08T06:18:20;8.93;;;6.43;;
21741;SDS011;11033;47.490;11.116;2023-04-08T06:20:45;8.50;;;5.67;;
21741;SDS011;11033;47.490;11.116;2023-04-08T06:23:10;8.07;;;6.40;;
21741;SDS011;11033;47.490;11.116;2023-04-08T06:25:36;10.95;;;6.82;;
21741;SDS011;11033;47.490;11.116;2023-04-08T06:28:01;8.88;;;6.38;;
21741;SDS011;11033;47.490;11.116;2023-04-08T06:30:27;7.78;;;6.20;;
21741;SDS011;11033;47.490;11.116;2023-04-08T06:32:52;8.13;;;6.45;;
21741;SDS011;11033;47.490;11.116;2023-04-08T06:35:17;9.07;;;6.27;;
21741;SDS011;11033;47.490;11.116;2023-04-08T06:37:43;8.40;;;6.45;;
21741;SDS011;11033;47.490;11.116;2023-04-08T06:40:08;7.20;;;5.87;;
21741;SDS011;11033;47.490;11.116;2023-04-08T06:42:33;7.90;;;6.38;;
21741;SDS011;11033;47.490;11.116;2023-04-08T06:44:59;8.45;;;6.53;;
21741;SDS011;11033;47.490;11.116;2023-04-08T06:47:25;6.35;;;5.53;;
21741;SDS011;11033;47.490;11.116;2023-04-08T06:49:50;7.13;;;5.80;;
21741;SDS011;11033;47.490;11.116;2023-04-08T06:52:15;9.33;;;7.13;;
21741;SDS011;11033;47.490;11.116;2023-04-08T06:54:41;7.75;;;6.50;;
21741;SDS011;11033;47.490;11.116;2023-04-08T06:57:06;9.82;;;7.60;;
21741;SDS011;11033;47.490;11.116;2023-04-08T06:59:31;10.20;;;6.87;;
21741;SDS011;11033;47.490;11.116;2023-04-08T07:01:57;6.70;;;5.68;;
21741;SDS011;11033;47.490;11.116;2023-04-08T07:04:22;6.60;;;5.93;;
21741;SDS011;11033;47.490;11.116;2023-04-08T07:06:47;7.60;;;6.30;;
21741;SDS011;11033;47.490;11.116;2023-04-08T07:09:13;8.83;;;6.77;;
21741;SDS011;11033;47.490;11.116;2023-04-08T07:11:38;8.23;;;6.20;;
21741;SDS011;11033;47.490;11.116;2023-04-08T07:14:03;8.20;;;6.77;;
21741;SDS011;11033;47.490;11.116;2023-04-08T07:16:28;8.00;;;6.90;;
21741;SDS011;11033;47.490;11.116;2023-04-08T07:18:54;7.70;;;6.07;;
21741;SDS011;11033;47.490;11.116;2023-04-08T07:21:19;7.28;;;5.80;;
21741;SDS011;11033;47.490;11.116;2023-04-08T07:23:44;8.05;;;6.78;;
21741;SDS011;11033;47.490;11.116;2023-04-08T07:26:10;7.43;;;5.47;;
21741;SDS011;11033;47.490;11.116;2023-04-08T07:28:35;7.30;;;5.40;;
21741;SDS011;11033;47.490;11.116;2023-04-08T07:31:07;6.20;;;5.60;;
21741;SDS011;11033;47.490;11.116;2023-04-08T07:33:34;6.93;;;6.05;;
21741;SDS011;11033;47.490;11.116;2023-04-08T07:35:59;6.17;;;5.43;;
21741;SDS011;11033;47.490;11.116;2023-04-08T07:38:24;6.70;;;5.67;;
21741;SDS011;11033;47.490;11.116;2023-04-08T07:40:50;5.93;;;5.33;;
21741;SDS011;11033;47.490;11.116;2023-04-08T07:43:15;6.65;;;5.95;;
21741;SDS011;11033;47.490;11.116;2023-04-08T07:45:40;8.35;;;6.20;;
21741;SDS011;11033;47.490;11.116;2023-04-08T07:48:06;6.60;;;5.43;;
21741;SDS011;11033;47.490;11.116;2023-04-08T07:50:31;7.17;;;5.77;;
21741;SDS011;11033;47.490;11.116;2023-04-08T07:52:56;9.97;;;6.43;;
21741;SDS011;11033;47.490;11.116;2023-04-08T07:55:21;8.40;;;6.43;;
21741;SDS011;11033;47.490;11.116;2023-04-08T07:57:47;6.73;;;6.03;;
21741;SDS011;11033;47.490;11.116;2023-04-08T08:00:12;6.10;;;5.50;;
21741;SDS011;11033;47.490;11.116;2023-04-08T08:02:44;7.22;;;4.85;;
21741;SDS011;11033;47.490;11.116;2023-04-08T08:05:09;5.17;;;4.33;;
21741;SDS011;11033;47.490;11.116;2023-04-08T08:07:35;4.77;;;3.70;;
21741;SDS011;11033;47.490;11.116;2023-04-08T08:10:00;5.78;;;4.65;;
21741;SDS011;11033;47.490;11.116;2023-04-08T08:12:25;5.63;;;4.70;;
21741;SDS011;11033;47.490;11.116;2023-04-08T08:14:51;7.43;;;5.30;;
21741;SDS011;11033;47.490;11.116;2023-04-08T08:17:19;5.38;;;4.50;;
21741;SDS011;11033;47.490;11.116;2023-04-08T08:19:45;4.40;;;4.00;;
21741;SDS011;11033;47.490;11.116;2023-04-08T08:22:10;4.30;;;3.80;;
21741;SDS011;11033;47.490;11.116;2023-04-08T08:24:36;5.88;;;3.70;;
21741;SDS011;11033;47.490;11.116;2023-04-08T08:27:01;3.80;;;3.50;;
21741;SDS011;11033;47.490;11.116;2023-04-08T08:29:29;3.97;;;3.35;;
21741;SDS011;11033;47.490;11.116;2023-04-08T08:31:54;4.43;;;3.88;;
21741;SDS011;11033;47.490;11.116;2023-04-08T08:34:19;4.47;;;3.80;;
21741;SDS011;11033;47.490;11.116;2023-04-08T08:36:44;4.90;;;4.30;;
21741;SDS011;11033;47.490;11.116;2023-04-08T08:39:10;6.67;;;4.27;;
21741;SDS011;11033;47.490;11.116;2023-04-08T08:41:35;4.45;;;4.05;;
21741;SDS011;11033;47.490;11.116;2023-04-08T08:44:01;4.78;;;4.25;;
21741;SDS011;11033;47.490;11.116;2023-04-08T08:46:29;4.75;;;4.07;;
21741;SDS011;11033;47.490;11.116;2023-04-08T08:48:55;5.10;;;4.32;;
21741;SDS011;11033;47.490;11.116;2023-04-08T08:51:21;8.07;;;4.15;;
21741;SDS011;11033;47.490;11.116;2023-04-08T08:53:46;6.28;;;3.88;;
21741;SDS011;11033;47.490;11.116;2023-04-08T08:56:12;4.63;;;4.15;;
21741;SDS011;11033;47.490;11.116;2023-04-08T08:58:37;7.10;;;4.53;;
21741;SDS011;11033;47.490;11.116;2023-04-08T09:01:25;5.70;;;5.03;;
21741;SDS011;11033;47.490;11.116;2023-04-08T09:04:06;5.72;;;4.78;;
21741;SDS011;11033;47.490;11.116;2023-04-08T09:06:40;6.70;;;4.70;;
21741;SDS011;11033;47.490;11.116;2023-04-08T09:09:06;6.50;;;5.35;;
21741;SDS011;11033;47.490;11.116;2023-04-08T09:11:36;6.32;;;4.80;;
21741;SDS011;11033;47.490;11.116;2023-04-08T09:14:18;6.40;;;4.93;;
21741;SDS011;11033;47.490;11.116;2023-04-08T09:16:45;5.93;;;5.10;;
21741;SDS011;11033;47.490;11.116;2023-04-08T09:19:10;6.45;;;5.63;;
21741;SDS011;11033;47.490;11.116;2023-04-08T09:21:36;6.80;;;6.10;;
21741;SDS011;11033;47.490;11.116;2023-04-08T09:24:02;7.28;;;6.18;;
21741;SDS011;11033;47.490;11.116;2023-04-08T09:26:28;11.15;;;8.27;;
21741;SDS011;11033;47.490;11.116;2023-04-08T09:29:00;11.73;;;7.65;;
21741;SDS011;11033;47.490;11.116;2023-04-08T09:31:28;9.70;;;7.20;;
21741;SDS011;11033;47.490;11.116;2023-04-08T09:33:55;9.75;;;7.38;;
21741;SDS011;11033;47.490;11.116;2023-04-08T09:36:22;10.43;;;7.30;;
21741;SDS011;11033;47.490;11.116;2023-04-08T09:38:48;9.82;;;7.15;;
21741;SDS011;11033;47.490;11.116;2023-04-08T09:41:14;9.30;;;6.45;;
21741;SDS011;11033;47.490;11.116;2023-04-08T09:43:44;9.60;;;7.75;;
21741;SDS011;11033;47.490;11.116;2023-04-08T09:46:15;9.13;;;7.57;;
21741;SDS011;11033;47.490;11.116;2023-04-08T09:48:49;7.47;;;6.50;;
21741;SDS011;11033;47.490;11.116;2023-04-08T09:51:21;8.00;;;6.18;;
21741;SDS011;11033;47.490;11.116;2023-04-08T09:53:50;6.93;;;6.13;;
21741;SDS011;11033;47.490;11.116;2023-04-08T09:56:23;7.03;;;6.07;;
21741;SDS011;11033;47.490;11.116;2023-04-08T09:58:56;6.47;;;5.65;;
21741;SDS011;11033;47.490;11.116;2023-04-08T10:01:43;7.05;;;5.82;;
21741;SDS011;11033;47.490;11.116;2023-04-08T10:04:13;10.23;;;5.85;;
21741;SDS011;11033;47.490;11.116;2023-04-08T10:06:44;7.53;;;5.35;;
21741;SDS011;11033;47.490;11.116;2023-04-08T10:09:17;8.02;;;7.15;;
21741;SDS011;11033;47.490;11.116;2023-04-08T10:11:43;9.25;;;7.35;;
21741;SDS011;11033;47.490;11.116;2023-04-08T10:14:09;8.80;;;7.35;;
21741;SDS011;11033;47.490;11.116;2023-04-08T10:16:35;7.07;;;5.70;;
21741;SDS011;11033;47.490;11.116;2023-04-08T10:19:00;10.90;;;7.28;;
21741;SDS011;11033;47.490;11.116;2023-04-08T10:21:38;8.97;;;7.47;;
21741;SDS011;11033;47.490;11.116;2023-04-08T10:24:11;11.60;;;9.00;;
21741;SDS011;11033;47.490;11.116;2023-04-08T10:26:40;11.85;;;6.53;;
21741;SDS011;11033;47.490;11.116;2023-04-08T10:31:41;7.13;;;6.30;;
21741;SDS011;11033;47.490;11.116;2023-04-08T10:34:16;9.93;;;8.15;;
21741;SDS011;11033;47.490;11.116;2023-04-08T10:36:42;9.55;;;7.20;;
21741;SDS011;11033;47.490;11.116;2023-04-08T10:39:08;9.43;;;8.27;;
21741;SDS011;11033;47.490;11.116;2023-04-08T10:41:34;11.57;;;9.85;;
21741;SDS011;11033;47.490;11.116;2023-04-08T10:44:02;13.15;;;10.93;;
21741;SDS011;11033;47.490;11.116;2023-04-08T10:46:27;10.25;;;8.63;;
21741;SDS011;11033;47.490;11.116;2023-04-08T10:48:59;10.10;;;9.05;;
21741;SDS011;11033;47.490;11.116;2023-04-08T10:51:31;12.88;;;10.15;;
21741;SDS011;11033;47.490;11.116;2023-04-08T10:54:16;11.50;;;9.77;;
21741;SDS011;11033;47.490;11.116;2023-04-08T10:56:43;10.80;;;8.57;;
21741;SDS011;11033;47.490;11.116;2023-04-08T10:59:13;11.23;;;9.63;;
21741;SDS011;11033;47.490;11.116;2023-04-08T11:01:40;12.23;;;8.50;;
21741;SDS011;11033;47.490;11.116;2023-04-08T11:04:14;10.40;;;8.07;;
21741;SDS011;11033;47.490;11.116;2023-04-08T11:06:43;12.73;;;10.45;;
21741;SDS011;11033;47.490;11.116;2023-04-08T11:09:10;13.65;;;9.57;;
21741;SDS011;11033;47.490;11.116;2023-04-08T11:11:35;12.50;;;9.13;;
21741;SDS011;11033;47.490;11.116;2023-04-08T11:14:01;10.18;;;9.07;;
21741;SDS011;11033;47.490;11.116;2023-04-08T11:16:27;12.30;;;9.50;;
21741;SDS011;11033;47.490;11.116;2023-04-08T11:18:53;10.27;;;8.50;;
21741;SDS011;11033;47.490;11.116;2023-04-08T11:21:19;13.82;;;11.32;;
21741;SDS011;11033;47.490;11.116;2023-04-08T11:23:48;11.98;;;9.75;;
21741;SDS011;11033;47.490;11.116;2023-04-08T11:26:14;15.18;;;12.32;;
21741;SDS011;11033;47.490;11.116;2023-04-08T11:28:40;15.57;;;10.63;;
21741;SDS011;11033;47.490;11.116;2023-04-08T11:31:05;13.98;;;11.13;;
21741;SDS011;11033;47.490;11.116;2023-04-08T11:33:34;11.50;;;10.20;;
21741;SDS011;11033;47.490;11.116;2023-04-08T11:36:00;9.55;;;8.55;;
21741;SDS011;11033;47.490;11.116;2023-04-08T11:38:30;13.13;;;10.40;;
21741;SDS011;11033;47.490;11.116;2023-04-08T11:40:56;15.57;;;12.57;;
21741;SDS011;11033;47.490;11.116;2023-04-08T11:43:22;17.15;;;13.95;;
21741;SDS011;11033;47.490;11.116;2023-04-08T11:45:48;17.35;;;14.13;;
21741;SDS011;11033;47.490;11.116;2023-04-08T11:48:15;20.00;;;16.65;;
21741;SDS011;11033;47.490;11.116;2023-04-08T11:50:42;21.45;;;16.35;;
21741;SDS011;11033;47.490;11.116;2023-04-08T11:53:15;21.20;;;17.42;;
21741;SDS011;11033;47.490;11.116;2023-04-08T11:58:14;23.45;;;17.27;;
21741;SDS011;11033;47.490;11.116;2023-04-08T12:00:40;24.58;;;18.15;;
21741;SDS011;11033;47.490;11.116;2023-04-08T12:03:06;24.80;;;19.48;;
21741;SDS011;11033;47.490;11.116;2023-04-08T12:05:32;24.48;;;18.83;;
21741;SDS011;11033;47.490;11.116;2023-04-08T12:07:57;22.98;;;19.00;;
21741;SDS011;11033;47.490;11.116;2023-04-08T12:10:22;22.03;;;17.37;;
21741;SDS011;11033;47.490;11.116;2023-04-08T12:12:49;28.08;;;21.00;;
21741;SDS011;11033;47.490;11.116;2023-04-08T12:15:15;34.67;;;25.15;;
21741;SDS011;11033;47.490;11.116;2023-04-08T12:17:40;26.50;;;21.90;;
21741;SDS011;11033;47.490;11.116;2023-04-08T12:20:05;32.50;;;23.42;;
21741;SDS011;11033;47.490;11.116;2023-04-08T12:22:31;31.88;;;24.10;;
21741;SDS011;11033;47.490;11.116;2023-04-08T12:24:57;30.85;;;22.25;;
21741;SDS011;11033;47.490;11.116;2023-04-08T12:27:22;28.33;;;19.23;;
21741;SDS011;11033;47.490;11.116;2023-04-08T12:29:47;28.90;;;21.55;;
21741;SDS011;11033;47.490;11.116;2023-04-08T12:32:13;33.00;;;24.70;;
21741;SDS011;11033;47.490;11.116;2023-04-08T12:34:39;29.20;;;23.08;;
21741;SDS011;11033;47.490;11.116;2023-04-08T12:37:05;30.80;;;22.65;;
21741;SDS011;11033;47.490;11.116;2023-04-08T12:39:30;27.43;;;21.33;;
21741;SDS011;11033;47.490;11.116;2023-04-08T12:41:55;29.53;;;23.23;;
21741;SDS011;11033;47.490;11.116;2023-04-08T12:44:21;29.17;;;22.63;;
21741;SDS011;11033;47.490;11.116;2023-04-08T12:46:46;34.80;;;25.30;;
21741;SDS011;11033;47.490;11.116;2023-04-08T12:49:11;30.90;;;22.48;;
21741;SDS011;11033;47.490;11.116;2023-04-08T12:51:37;32.53;;;24.23;;
21741;SDS011;11033;47.490;11.116;2023-04-08T12:54:02;27.67;;;21.20;;
21741;SDS011;11033;47.490;11.116;2023-04-08T12:56:28;34.47;;;24.65;;
21741;SDS011;11033;47.490;11.116;2023-04-08T12:58:54;28.20;;;20.95;;
21741;SDS011;11033;47.490;11.116;2023-04-08T13:01:22;31.45;;;24.33;;
21741;SDS011;11033;47.490;11.116;2023-04-08T13:03:47;32.22;;;22.30;;
21741;SDS011;11033;47.490;11.116;2023-04-08T13:06:13;24.25;;;18.80;;
21741;SDS011;11033;47.490;11.116;2023-04-08T13:08:38;26.63;;;19.83;;
21741;SDS011;11033;47.490;11.116;2023-04-08T13:11:03;27.35;;;20.75;;
21741;SDS011;11033;47.490;11.116;2023-04-08T13:13:29;33.72;;;22.70;;
21741;SDS011;11033;47.490;11.116;2023-04-08T13:15:54;28.05;;;21.48;;
21741;SDS011;11033;47.490;11.116;2023-04-08T13:18:20;30.80;;;21.58;;
21741;SDS011;11033;47.490;11.116;2023-04-08T13:20:46;29.73;;;22.73;;
21741;SDS011;11033;47.490;11.116;2023-04-08T13:23:11;29.60;;;22.65;;
21741;SDS011;11033;47.490;11.116;2023-04-08T13:25:38;31.38;;;22.83;;
21741;SDS011;11033;47.490;11.116;2023-04-08T13:28:03;28.77;;;21.80;;
21741;SDS011;11033;47.490;11.116;2023-04-08T13:30:29;28.55;;;21.95;;
21741;SDS011;11033;47.490;11.116;2023-04-08T13:32:54;27.08;;;21.58;;
21741;SDS011;11033;47.490;11.116;2023-04-08T13:35:20;27.77;;;20.98;;
21741;SDS011;11033;47.490;11.116;2023-04-08T13:37:45;28.88;;;22.40;;
21741;SDS011;11033;47.490;11.116;2023-04-08T13:40:10;31.10;;;22.85;;
21741;SDS011;11033;47.490;11.116;2023-04-08T13:42:36;28.27;;;22.30;;
21741;SDS011;11033;47.490;11.116;2023-04-08T13:45:01;30.02;;;23.30;;
21741;SDS011;11033;47.490;11.116;2023-04-08T13:47:26;30.52;;;23.15;;
21741;SDS011;11033;47.490;11.116;2023-04-08T13:49:52;34.92;;;26.35;;
21741;SDS011;11033;47.490;11.116;2023-04-08T13:52:17;25.85;;;20.52;;
21741;SDS011;11033;47.490;11.116;2023-04-08T13:54:43;33.55;;;23.65;;
21741;SDS011;11033;47.490;11.116;2023-04-08T13:57:08;30.53;;;23.47;;
21741;SDS011;11033;47.490;11.116;2023-04-08T13:59:33;32.58;;;24.00;;
21741;SDS011;11033;47.490;11.116;2023-04-08T14:01:59;33.35;;;25.00;;
21741;SDS011;11033;47.490;11.116;2023-04-08T14:04:24;34.67;;;25.40;;
21741;SDS011;11033;47.490;11.116;2023-04-08T14:06:50;33.72;;;25.60;;
21741;SDS011;11033;47.490;11.116;2023-04-08T14:09:17;37.58;;;26.75;;
21741;SDS011;11033;47.490;11.116;2023-04-08T14:11:42;29.60;;;22.05;;
21741;SDS011;11033;47.490;11.116;2023-04-08T14:14:08;34.83;;;27.15;;
21741;SDS011;11033;47.490;11.116;2023-04-08T14:16:33;34.00;;;25.57;;
21741;SDS011;11033;47.490;11.116;2023-04-08T14:18:59;34.92;;;25.05;;
21741;SDS011;11033;47.490;11.116;2023-04-08T14:21:25;35.63;;;28.10;;
21741;SDS011;11033;47.490;11.116;2023-04-08T14:23:50;36.17;;;26.77;;
21741;SDS011;11033;47.490;11.116;2023-04-08T14:26:16;35.25;;;26.58;;
21741;SDS011;11033;47.490;11.116;2023-04-08T14:28:41;36.53;;;26.60;;
21741;SDS011;11033;47.490;11.116;2023-04-08T14:31:07;38.95;;;28.00;;
21741;SDS011;11033;47.490;11.116;2023-04-08T14:33:32;38.55;;;28.70;;
21741;SDS011;11033;47.490;11.116;2023-04-08T14:35:57;39.35;;;28.38;;